Tela, Honduras
Current Conditions -  °F | °C
As of 8:00 PM on Sunday 23 Nov 2014 (Local Time) from MHLM Reporting Station
Few Clouds Few Clouds  
Wind Chill: 77°   Ceiling: Unl
Heat Index: 78°   Visibility: 6mi
Dew Point: 75°   Wind: 2mph
Humidity: 94%   Direction: 300°WNW
Pressure: 29.83"   Gusts: NA
Location:  15.78°N, 87.46°W
Report Text: MHLM 240200Z 30002KT 9999 FEW025 25/24 Q1010 A2983 NOSIG
Loading
Personal Weather Stations






























Interactive Weather Map New forecast layout! Learn more

10-Day Weather Forecast

Advertisements
Track Severe Weather on mobile